Time;durP1;ratioP1;P1;durP2;ratioP2;P2;SDS_P1;SDS_P2;PMS_P1;PMS_P2;Temp;Humidity;BMP_temperature;BMP_pressure;BME280_temperature;BME280_humidity;BME280_pressure;Samples;Min_cycle;Max_cycle;Signal;HPM_P1;HPM_P2
2022/01/19 00:01:42;;;;;;;6.17;3.73;;;6.80;99.90;;;;;;4956242;28;20213;-78
2022/01/19 00:04:08;;;;;;;6.83;4.70;;;6.80;99.90;;;;;;4957773;29;20585;-77
2022/01/19 00:06:34;;;;;;;5.50;3.70;;;6.80;99.90;;;;;;4949829;28;20189;-77
2022/01/19 00:09:00;;;;;;;6.53;3.57;;;6.90;99.90;;;;;;4930424;29;20193;-77
2022/01/19 00:11:26;;;;;;;5.03;3.70;;;6.80;99.90;;;;;;4944868;28;20559;-77
2022/01/19 00:13:52;;;;;;;4.23;2.90;;;6.80;99.90;;;;;;4952894;28;20213;-77
2022/01/19 00:16:20;;;;;;;4.60;2.87;;;6.80;99.90;;;;;;4952442;28;20196;-77
2022/01/19 00:18:46;;;;;;;4.43;3.13;;;6.80;99.90;;;;;;4923896;28;20193;-78
2022/01/19 00:21:12;;;;;;;6.00;3.23;;;6.80;99.90;;;;;;4948763;28;20196;-77
2022/01/19 00:23:38;;;;;;;3.70;2.93;;;6.80;99.90;;;;;;4940756;29;20207;-76
2022/01/19 00:26:03;;;;;;;3.73;2.80;;;6.80;99.90;;;;;;4949716;28;20263;-78
2022/01/19 00:28:29;;;;;;;3.97;3.10;;;6.70;99.90;;;;;;4947505;28;20451;-77
2022/01/19 00:30:56;;;;;;;5.67;3.50;;;6.80;99.90;;;;;;4948085;28;20308;-77
2022/01/19 00:33:21;;;;;;;6.13;3.93;;;6.80;99.90;;;;;;4952010;29;20623;-77
2022/01/19 00:35:49;;;;;;;5.97;3.33;;;6.80;99.90;;;;;;4944906;28;20251;-77
2022/01/19 00:38:16;;;;;;;4.90;3.60;;;6.80;99.90;;;;;;4946855;28;20181;-78
2022/01/19 00:40:42;;;;;;;3.90;3.40;;;6.90;99.90;;;;;;4951348;28;20189;-77
2022/01/19 00:43:08;;;;;;;4.37;2.90;;;6.90;99.90;;;;;;4962616;28;20749;-77
2022/01/19 00:45:36;;;;;;;3.17;2.60;;;6.80;99.90;;;;;;4941269;29;20268;-77
2022/01/19 00:48:02;;;;;;;2.87;2.53;;;6.90;99.90;;;;;;4942841;29;20256;-78
2022/01/19 00:50:29;;;;;;;3.00;2.60;;;6.90;99.90;;;;;;4962865;28;20192;-78
2022/01/19 00:52:55;;;;;;;4.67;2.60;;;6.90;99.90;;;;;;4955383;29;20695;-77
2022/01/19 00:55:23;;;;;;;4.20;2.73;;;6.90;99.90;;;;;;4948015;28;20236;-79
2022/01/19 00:57:50;;;;;;;3.40;2.80;;;6.80;99.90;;;;;;4951983;28;20546;-79
2022/01/19 01:00:25;;;;;;;3.47;2.97;;;6.80;99.90;;;;;;4955263;28;20205;-75
2022/01/19 01:02:51;;;;;;;4.17;3.10;;;6.80;99.90;;;;;;4962589;28;20284;-77
2022/01/19 01:05:18;;;;;;;3.10;2.80;;;6.80;99.90;;;;;;4936155;29;20276;-78
2022/01/19 01:07:44;;;;;;;4.63;3.10;;;6.80;99.90;;;;;;4956578;28;20205;-78
2022/01/19 01:10:13;;;;;;;3.90;3.30;;;6.80;99.90;;;;;;4975898;28;20218;-79
2022/01/19 01:12:48;;;;;;;5.40;3.20;;;6.80;99.90;;;;;;4964113;28;20186;-77
2022/01/19 01:20:36;;;;;;;5.53;3.60;;;6.70;99.90;;;;;;4935126;29;20696;-78
2022/01/19 01:23:05;;;;;;;3.77;3.33;;;6.70;99.90;;;;;;4953232;29;20688;-77
2022/01/19 01:25:31;;;;;;;5.40;3.93;;;6.70;99.90;;;;;;4971576;28;20237;-78
2022/01/19 01:27:57;;;;;;;4.80;3.87;;;6.70;99.90;;;;;;4962644;28;20251;-78
2022/01/19 01:30:23;;;;;;;4.13;3.73;;;6.70;99.90;;;;;;4952113;28;20222;-77
2022/01/19 01:32:49;;;;;;;4.10;3.60;;;6.70;99.90;;;;;;4965358;28;20269;-77
2022/01/19 01:35:15;;;;;;;4.13;3.60;;;6.70;99.90;;;;;;4953523;28;20285;-78
2022/01/19 01:37:41;;;;;;;5.17;3.50;;;6.80;99.90;;;;;;4949444;28;20190;-78
2022/01/19 01:40:09;;;;;;;4.97;3.60;;;6.80;99.90;;;;;;4937155;29;20208;-78
2022/01/19 01:42:36;;;;;;;4.67;3.97;;;6.80;99.90;;;;;;4937909;29;20280;-78
2022/01/19 01:45:03;;;;;;;6.70;4.20;;;6.80;99.90;;;;;;4966279;28;20239;-77
2022/01/19 01:47:30;;;;;;;5.00;4.50;;;6.80;99.90;;;;;;4952809;28;20197;-78
2022/01/19 01:55:17;;;;;;;6.73;6.03;;;6.70;99.90;;;;;;4950603;29;20217;-78
2022/01/19 01:57:43;;;;;;;8.00;7.20;;;6.70;99.90;;;;;;4956273;28;20664;-79
2022/01/19 02:00:14;;;;;;;8.37;6.93;;;6.70;99.90;;;;;;4954915;29;20220;-78
2022/01/19 02:02:43;;;;;;;7.30;6.50;;;6.60;99.90;;;;;;4952203;28;20217;-78
2022/01/19 02:05:10;;;;;;;7.37;6.43;;;6.60;99.80;;;;;;4965285;28;20194;-78
2022/01/19 02:08:10;;;;;;;7.33;6.30;;;6.60;99.50;;;;;;4951256;28;20184;-77
2022/01/19 02:10:37;;;;;;;8.87;6.10;;;6.60;99.60;;;;;;4944721;29;20190;-79
2022/01/19 02:21:43;;;;;;;6.43;5.47;;;6.60;99.00;;;;;;4952188;29;22140;-77
2022/01/19 02:24:13;;;;;;;6.60;5.63;;;6.50;99.50;;;;;;4952812;29;20263;-77
2022/01/19 02:42:33;;;;;;;7.10;6.40;;;6.50;98.60;;;;;;4946291;28;20217;-79
2022/01/19 02:50:09;;;;;;;6.77;6.07;;;6.40;98.00;;;;;;4952521;28;20478;-78
2022/01/19 02:52:35;;;;;;;6.73;5.90;;;6.50;98.20;;;;;;4936591;28;20645;-75
2022/01/19 02:55:00;;;;;;;8.70;6.10;;;6.40;97.00;;;;;;4952165;28;20249;-79
2022/01/19 02:57:27;;;;;;;6.00;5.30;;;6.40;96.40;;;;;;4953510;28;20181;-77
2022/01/19 03:10:34;;;;;;;7.77;5.93;;;6.20;97.30;;;;;;4957635;28;20203;-77
2022/01/19 03:13:00;;;;;;;6.77;5.80;;;6.20;98.00;;;;;;4948691;28;20181;-76
2022/01/19 03:15:27;;;;;;;7.50;5.80;;;6.10;98.40;;;;;;4948948;29;20272;-76
2022/01/19 03:17:57;;;;;;;8.00;6.13;;;6.10;99.10;;;;;;4949253;28;20190;-77
2022/01/19 03:20:24;;;;;;;11.30;7.03;;;6.00;99.00;;;;;;4953610;28;20553;-78
2022/01/19 03:23:02;;;;;;;9.00;5.90;;;5.90;99.50;;;;;;4952352;28;20220;-77
2022/01/19 03:25:28;;;;;;;9.13;5.70;;;5.80;99.90;;;;;;4951457;28;20556;-78
2022/01/19 03:27:54;;;;;;;8.50;6.47;;;5.70;99.90;;;;;;4947923;29;20193;-78
2022/01/19 03:30:21;;;;;;;7.47;5.17;;;5.70;99.90;;;;;;4950722;29;20563;-80
2022/01/19 03:32:47;;;;;;;7.90;5.77;;;5.50;99.90;;;;;;4949804;28;20559;-78
2022/01/19 03:35:14;;;;;;;6.37;5.73;;;5.60;99.90;;;;;;4951135;29;20704;-77
2022/01/19 03:37:41;;;;;;;7.73;5.93;;;5.50;99.90;;;;;;4945691;29;20193;-78
2022/01/19 03:40:08;;;;;;;9.03;6.47;;;5.50;99.90;;;;;;4941364;28;20285;-78
2022/01/19 03:42:35;;;;;;;9.93;6.60;;;5.50;99.90;;;;;;4950742;28;20216;-79
2022/01/19 03:45:01;;;;;;;8.10;6.23;;;5.40;99.90;;;;;;4957127;28;20212;-78
2022/01/19 03:47:27;;;;;;;7.83;5.63;;;5.30;99.90;;;;;;4950642;29;20244;-76
2022/01/19 03:49:53;;;;;;;10.33;6.50;;;5.30;99.90;;;;;;4953641;28;20186;-79
2022/01/19 03:52:20;;;;;;;9.43;7.00;;;5.30;99.90;;;;;;4953962;28;20185;-78
2022/01/19 03:54:46;;;;;;;8.43;6.50;;;5.30;99.90;;;;;;4927152;28;20300;-78
2022/01/19 03:57:13;;;;;;;8.27;5.77;;;5.30;99.90;;;;;;4948549;28;20189;-77
2022/01/19 03:59:39;;;;;;;9.13;6.73;;;5.20;99.90;;;;;;4935745;29;20190;-78
2022/01/19 04:02:05;;;;;;;10.33;6.40;;;5.20;99.90;;;;;;4953162;28;20237;-77
2022/01/19 04:04:40;;;;;;;9.97;7.00;;;5.20;99.90;;;;;;4954184;28;20665;-78
2022/01/19 04:09:37;;;;;;;9.57;6.77;;;5.10;99.90;;;;;;4952365;28;20200;-78
2022/01/19 04:12:06;;;;;;;7.77;6.33;;;5.10;99.90;;;;;;4953248;28;20280;-78
2022/01/19 04:14:33;;;;;;;9.47;6.10;;;5.10;99.90;;;;;;4954681;28;20225;-78
2022/01/19 04:17:00;;;;;;;9.17;6.93;;;5.10;99.90;;;;;;4958447;28;20192;-78
2022/01/19 04:22:01;;;;;;;8.43;6.80;;;5.20;99.90;;;;;;4938625;28;20220;-79
2022/01/19 04:24:27;;;;;;;9.87;6.33;;;5.10;99.90;;;;;;4962527;28;20218;-79
2022/01/19 04:26:58;;;;;;;8.40;6.07;;;5.10;99.90;;;;;;4956169;29;20179;-77
2022/01/19 04:29:25;;;;;;;10.33;6.67;;;5.10;99.90;;;;;;4970106;28;20197;-78
2022/01/19 04:31:51;;;;;;;8.90;6.43;;;5.10;99.90;;;;;;4953700;29;20276;-77
2022/01/19 04:34:22;;;;;;;14.20;7.57;;;5.10;99.90;;;;;;4952248;29;20209;-78
2022/01/19 04:37:23;;;;;;;10.37;6.97;;;5.10;99.90;;;;;;4951654;29;20224;-78
2022/01/19 05:06:46;;;;;;;8.23;6.60;;;4.80;99.90;;;;;;4952772;29;20181;-78
2022/01/19 05:14:43;;;;;;;9.40;7.03;;;4.70;99.90;;;;;;4969009;28;20299;-76
2022/01/19 05:17:08;;;;;;;10.47;7.07;;;4.60;99.90;;;;;;4969947;28;20268;-76
2022/01/19 05:19:34;;;;;;;9.57;7.53;;;4.60;99.90;;;;;;4952892;28;20209;-77
2022/01/19 05:22:00;;;;;;;9.87;7.20;;;4.50;99.90;;;;;;4952097;28;20296;-77
2022/01/19 05:24:46;;;;;;;10.07;7.77;;;4.40;99.90;;;;;;4962744;28;20325;-76
2022/01/19 05:27:36;;;;;;;11.60;6.97;;;4.30;99.90;;;;;;4952358;28;20232;-77
2022/01/19 05:30:03;;;;;;;12.93;7.10;;;4.20;99.90;;;;;;4950966;28;20656;-77
2022/01/19 05:32:29;;;;;;;9.80;7.00;;;4.10;99.90;;;;;;4951760;29;20193;-77
2022/01/19 05:34:55;;;;;;;11.47;7.63;;;4.10;99.90;;;;;;4937601;29;20571;-79
2022/01/19 05:37:53;;;;;;;9.47;6.47;;;4.00;99.90;;;;;;4943714;28;20560;-77
2022/01/19 05:40:31;;;;;;;9.53;6.27;;;4.00;99.90;;;;;;4956355;28;20173;-77
2022/01/19 05:42:58;;;;;;;10.07;7.03;;;4.00;99.90;;;;;;4954207;28;20209;-77
2022/01/19 05:45:24;;;;;;;10.17;7.30;;;3.90;99.90;;;;;;4935612;29;20217;-79
2022/01/19 05:47:52;;;;;;;10.90;7.30;;;3.90;99.90;;;;;;4933204;29;20564;-78
2022/01/19 05:50:17;;;;;;;10.87;7.27;;;3.90;99.90;;;;;;4952510;29;20209;-78
2022/01/19 05:52:52;;;;;;;14.30;8.80;;;4.00;99.90;;;;;;4920472;28;20201;-78
2022/01/19 05:55:17;;;;;;;12.53;8.30;;;3.90;99.90;;;;;;4949854;28;20261;-76
2022/01/19 05:57:43;;;;;;;12.10;8.23;;;3.80;99.90;;;;;;4933763;29;20185;-76
2022/01/19 06:00:10;;;;;;;10.30;7.87;;;3.80;99.90;;;;;;4951404;28;20703;-78
2022/01/19 06:02:49;;;;;;;9.60;7.27;;;3.80;99.90;;;;;;4953361;29;20213;-78
2022/01/19 06:05:18;;;;;;;11.53;7.23;;;3.80;99.90;;;;;;4936842;29;20231;-78
2022/01/19 06:08:11;;;;;;;10.53;7.30;;;3.60;99.90;;;;;;4952319;29;20211;-78
2022/01/19 06:10:44;;;;;;;11.87;7.73;;;3.50;99.90;;;;;;4952162;29;20215;-78
2022/01/19 06:13:14;;;;;;;15.57;8.60;;;3.50;99.90;;;;;;4952903;28;20221;-78
2022/01/19 06:15:40;;;;;;;13.50;8.67;;;3.40;99.90;;;;;;4952362;29;20228;-78
2022/01/19 06:18:06;;;;;;;11.70;7.50;;;3.40;99.90;;;;;;4951182;28;20310;-77
2022/01/19 06:20:32;;;;;;;11.93;7.97;;;3.40;99.90;;;;;;4951915;29;20209;-74
2022/01/19 06:22:59;;;;;;;10.87;7.47;;;3.40;99.90;;;;;;4957334;28;20719;-75
2022/01/19 06:25:25;;;;;;;11.83;7.70;;;3.40;99.90;;;;;;4952232;28;20209;-78
2022/01/19 06:27:51;;;;;;;12.13;8.40;;;;;;;;;;4949595;28;20661;-77
2022/01/19 06:30:17;;;;;;;11.70;8.37;;;;;;;;;;4974448;28;20215;-78
2022/01/19 06:32:45;;;;;;;15.10;8.63;;;;;;;;;;4944166;28;20556;-76
2022/01/19 06:35:12;;;;;;;14.90;9.17;;;;;;;;;;4940119;29;20536;-77
2022/01/19 06:38:04;;;;;;;12.30;8.07;;;;;;;;;;4946301;29;20535;-77
2022/01/19 06:40:39;;;;;;;13.50;8.60;;;;;;;;;;4967867;28;20928;-76
2022/01/19 06:43:05;;;;;;;13.90;8.10;;;;;;;;;;4931047;29;20223;-75
2022/01/19 06:45:31;;;;;;;16.30;9.60;;;;;;;;;;4952395;28;20685;-76
2022/01/19 06:47:58;;;;;;;13.20;8.47;;;;;;;;;;4946191;28;20177;-75
2022/01/19 06:50:25;;;;;;;15.20;10.13;;;;;;;;;;4945189;29;20188;-75
2022/01/19 06:52:51;;;;;;;16.97;10.70;;;;;;;;;;4963842;28;20201;-75
2022/01/19 06:55:18;;;;;;;15.27;10.00;;;;;;;;;;4950411;28;20213;-76
2022/01/19 06:57:45;;;;;;;16.03;10.97;;;;;;;;;;4951414;28;20236;-74
2022/01/19 07:00:24;;;;;;;14.83;11.03;;;;;;;;;;4940153;29;20189;-76
2022/01/19 07:03:22;;;;;;;16.80;10.40;;;;;;;;;;4929122;28;20235;-77
2022/01/19 07:05:52;;;;;;;15.77;10.03;;;;;;;;;;4942128;28;20181;-77
2022/01/19 07:08:39;;;;;;;15.13;10.00;;;;;;;;;;4946079;29;20202;-76
2022/01/19 07:11:05;;;;;;;20.13;9.40;;;;;;;;;;4944320;28;20189;-77
2022/01/19 07:13:32;;;;;;;14.73;10.30;;;;;;;;;;4964624;28;20217;-76
2022/01/19 07:15:59;;;;;;;20.33;10.87;;;;;;;;;;4945200;28;20268;-76
2022/01/19 07:18:25;;;;;;;15.87;10.00;;;;;;;;;;4941429;28;20319;-76
2022/01/19 07:20:52;;;;;;;22.17;12.43;;;;;;;;;;4942003;29;20188;-77
2022/01/19 07:23:21;;;;;;;18.93;11.40;;;;;;;;;;4944251;28;20212;-77
2022/01/19 07:25:47;;;;;;;20.40;11.77;;;;;;;;;;4945259;28;20182;-77
2022/01/19 07:28:13;;;;;;;16.10;10.90;;;;;;;;;;4931220;29;20224;-76
2022/01/19 07:30:42;;;;;;;19.60;11.47;;;;;;;;;;4947538;29;20540;-76
2022/01/19 07:33:08;;;;;;;18.23;11.27;;;;;;;;;;4930052;28;20181;-76
2022/01/19 07:35:34;;;;;;;18.60;10.83;;;;;;;;;;4944602;28;20221;-76
2022/01/19 07:38:01;;;;;;;17.13;10.53;;;;;;;;;;4928409;29;20669;-76
2022/01/19 07:40:27;;;;;;;18.03;10.07;;;;;;;;;;4943206;29;20222;-76
2022/01/19 07:42:53;;;;;;;14.90;10.20;;;;;;;;;;4930388;29;20228;-76
2022/01/19 07:45:38;;;;;;;15.90;9.80;;;;;;;;;;4948619;28;20548;-77
2022/01/19 07:48:15;;;;;;;15.70;10.73;;;;;;;;;;4950530;28;20259;-77
2022/01/19 07:51:11;;;;;;;15.33;10.60;;;;;;;;;;4954773;28;20200;-77
2022/01/19 07:53:43;;;;;;;16.67;10.87;;;;;;;;;;4952619;28;20612;-77
2022/01/19 07:56:18;;;;;;;16.33;10.70;;;;;;;;;;4949823;29;20275;-79
2022/01/19 07:59:03;;;;;;;13.60;10.30;;;;;;;;;;4942240;29;20606;-78
2022/01/19 08:01:45;;;;;;;13.67;10.03;;;;;;;;;;4915583;29;20213;-77
2022/01/19 08:04:29;;;;;;;13.37;8.80;;;;;;;;;;4950843;28;20558;-77
2022/01/19 08:06:56;;;;;;;17.73;9.50;;;;;;;;;;4944627;29;20220;-76
2022/01/19 08:09:23;;;;;;;15.00;9.30;;;;;;;;;;4948883;28;20201;-77
2022/01/19 08:11:49;;;;;;;18.00;9.57;;;;;;;;;;4950694;29;20220;-80
2022/01/19 08:14:25;;;;;;;19.77;9.53;;;;;;;;;;4956079;29;20274;-76
2022/01/19 08:16:53;;;;;;;14.83;9.50;;;;;;;;;;4936235;29;20576;-77
2022/01/19 08:19:19;;;;;;;14.10;9.10;;;;;;;;;;4947237;29;20189;-76
2022/01/19 08:21:45;;;;;;;15.97;10.40;;;;;;;;;;4953514;28;20216;-76
2022/01/19 08:24:11;;;;;;;16.80;10.60;;;;;;;;;;4949061;29;20268;-77
2022/01/19 08:26:39;;;;;;;18.57;11.33;;;;;;;;;;4951440;28;20182;-76
2022/01/19 08:29:09;;;;;;;17.20;10.10;;;;;;;;;;4950645;28;20193;-77
2022/01/19 08:31:36;;;;;;;13.63;9.87;;;;;;;;;;4946206;28;20744;-76
2022/01/19 08:34:08;;;;;;;15.97;10.03;;;;;;;;;;4952273;28;20248;-77
2022/01/19 08:37:10;;;;;;;15.57;9.97;;;;;;;;;;4946868;28;20245;-76
2022/01/19 08:39:41;;;;;;;14.73;10.07;;;;;;;;;;4968679;28;20185;-76
2022/01/19 08:42:08;;;;;;;18.27;11.13;;;;;;;;;;4953482;28;20239;-77
2022/01/19 08:44:34;;;;;;;16.07;10.90;;;;;;;;;;4952980;29;20259;-76
2022/01/19 08:47:13;;;;;;;15.63;10.90;;;;;;;;;;4953428;28;20291;-76
2022/01/19 08:50:04;;;;;;;18.37;11.37;;;;;;;;;;4953369;28;20204;-76
2022/01/19 08:52:55;;;;;;;16.77;11.20;;;;;;;;;;4953926;29;20641;-78
2022/01/19 08:55:30;;;;;;;16.30;11.53;;;;;;;;;;4953360;28;20271;-77
2022/01/19 08:57:56;;;;;;;18.90;11.57;;;;;;;;;;4953045;28;20561;-77
2022/01/19 09:00:23;;;;;;;19.10;11.97;;;;;;;;;;4953524;29;20195;-77
2022/01/19 09:02:49;;;;;;;18.77;11.70;;;;;;;;;;4967411;28;20213;-77
2022/01/19 09:05:15;;;;;;;18.90;12.47;;;;;;;;;;4972878;28;20699;-76
2022/01/19 09:07:42;;;;;;;18.20;11.67;;;;;;;;;;4969087;28;20645;-76
2022/01/19 09:10:09;;;;;;;18.80;11.83;;;;;;;;;;4954791;28;20200;-76
2022/01/19 09:12:36;;;;;;;22.03;12.70;;;;;;;;;;4953834;29;20649;-76
2022/01/19 09:15:04;;;;;;;17.47;11.50;;;;;;;;;;4949587;28;20234;-78
2022/01/19 09:17:30;;;;;;;17.83;11.37;;;;;;;;;;4972690;28;20259;-77
2022/01/19 09:19:57;;;;;;;16.80;11.77;;;;;;;;;;4954470;28;20177;-76
2022/01/19 09:22:23;;;;;;;18.93;12.50;;;;;;;;;;4954393;28;20205;-77
2022/01/19 09:24:49;;;;;;;17.33;11.83;;;;;;;;;;4953400;29;20208;-77
2022/01/19 09:27:18;;;;;;;17.97;12.30;;;;;;;;;;4951074;29;20193;-77
2022/01/19 09:29:45;;;;;;;18.10;12.13;;;;;;;;;;4950599;28;20198;-76
2022/01/19 09:32:13;;;;;;;18.70;12.60;;;;;;;;;;4934894;29;20626;-77
2022/01/19 09:34:42;;;;;;;19.50;12.70;;;;;;;;;;4971228;28;20205;-77
2022/01/19 09:37:09;;;;;;;17.90;12.33;;;;;;;;;;4954566;28;20169;-76
2022/01/19 09:39:35;;;;;;;18.30;12.20;;;;;;;;;;4936875;29;20185;-76
2022/01/19 09:42:01;;;;;;;19.47;12.67;;;;;;;;;;4954339;28;20213;-77
2022/01/19 09:44:31;;;;;;;18.57;13.10;;;;;;;;;;4952222;29;20209;-78
2022/01/19 09:46:57;;;;;;;19.53;12.30;;;;;;;;;;4953030;28;20272;-78
2022/01/19 09:49:24;;;;;;;16.60;12.00;;;;;;;;;;4952173;28;20528;-77
2022/01/19 09:51:51;;;;;;;18.97;12.47;;;;;;;;;;4953513;28;20201;-77
2022/01/19 09:54:19;;;;;;;18.73;12.47;;;;;;;;;;4954045;28;20213;-77
2022/01/19 09:56:45;;;;;;;17.17;11.63;;;;;;;;;;4951709;28;20184;-77
2022/01/19 09:59:14;;;;;;;21.53;12.67;;;;;;;;;;4952145;29;20736;-77
2022/01/19 10:02:02;;;;;;;18.50;12.77;;;;;;;;;;4961882;28;20209;-78
2022/01/19 10:04:29;;;;;;;21.03;13.30;;;;;;;;;;4973782;28;20205;-78
2022/01/19 10:07:14;;;;;;;18.23;12.53;;;;;;;;;;4953029;28;20185;-77
2022/01/19 10:10:01;;;;;;;20.10;13.97;;;;;;;;;;4952442;28;20192;-77
2022/01/19 10:18:17;;;;;;;17.77;11.97;;;;;;;;;;4972568;28;20544;-77
2022/01/19 10:20:44;;;;;;;20.33;13.80;;;;;;;;;;4948944;29;20649;-77
2022/01/19 10:23:33;;;;;;;17.07;12.70;;;;;;;;;;4947362;28;20205;-76
2022/01/19 10:25:59;;;;;;;19.00;13.40;;;;;;;;;;4951806;29;20646;-77
2022/01/19 10:28:27;;;;;;;19.47;13.47;;;;;;;;;;4953629;28;20716;-77
2022/01/19 10:30:53;;;;;;;18.33;13.17;;;;;;;;;;4951984;29;20191;-77
2022/01/19 10:33:19;;;;;;;19.40;13.63;;;;;;;;;;4970258;28;20186;-77
2022/01/19 10:35:48;;;;;;;19.80;13.60;;;;;;;;;;4958933;28;20568;-77
2022/01/19 10:38:15;;;;;;;22.07;12.97;;;;;;;;;;4951892;29;20181;-77
2022/01/19 10:41:04;;;;;;;20.63;14.07;;;;;;;;;;4957646;28;20275;-77
2022/01/19 10:43:35;;;;;;;17.57;12.70;;;;;;;;;;4959984;28;20224;-77
2022/01/19 10:46:02;;;;;;;17.43;14.00;;;;;;;;;;4950421;28;20193;-77
2022/01/19 10:48:33;;;;;;;19.20;13.60;;;;;;;;;;4953474;28;20197;-77
2022/01/19 10:51:07;;;;;;;20.40;13.17;;;;;;;;;;4952668;28;20259;-78
2022/01/19 10:53:33;;;;;;;19.03;13.30;;;;;;;;;;4952273;28;20213;-77
2022/01/19 10:56:02;;;;;;;17.40;13.57;;;;;;;;;;4949249;29;20177;-79
2022/01/19 10:58:28;;;;;;;21.90;13.23;;;;;;;;;;4956269;28;20235;-77
2022/01/19 11:00:55;;;;;;;18.23;12.87;;;;;;;;;;4953040;28;20174;-77
2022/01/19 11:03:25;;;;;;;17.93;12.93;;;;;;;;;;4949758;29;20289;-77
2022/01/19 11:06:01;;;;;;;18.97;12.63;;;;;;;;;;4949589;29;20194;-77
2022/01/19 11:08:28;;;;;;;19.73;12.83;;;;;;;;;;4940435;28;20180;-77
2022/01/19 11:10:56;;;;;;;20.57;13.07;;;;;;;;;;4949062;29;20555;-77
2022/01/19 11:13:40;;;;;;;18.77;12.87;;;;;;;;;;4947381;28;20181;-77
2022/01/19 11:16:06;;;;;;;20.87;13.83;;;;;;;;;;4949216;28;20185;-77
2022/01/19 11:18:36;;;;;;;20.60;12.77;;;;;;;;;;4949964;29;20215;-78
2022/01/19 11:21:05;;;;;;;20.83;12.90;;;;;;;;;;4945895;29;20225;-78
2022/01/19 11:23:41;;;;;;;18.80;13.10;;;;;;;;;;4944795;28;20224;-78
2022/01/19 11:26:10;;;;;;;18.17;12.13;;;;;;;;;;4948306;28;20177;-77
2022/01/19 11:28:46;;;;;;;19.03;13.20;;;;;;;;;;4948362;28;20536;-77
2022/01/19 11:31:13;;;;;;;17.47;12.73;;;;;;;;;;4948869;29;20184;-76
2022/01/19 11:33:41;;;;;;;17.20;12.17;;;;;;;;;;4947436;29;20201;-77
2022/01/19 11:36:19;;;;;;;18.10;12.77;;;;;;;;;;4936698;29;20185;-77
2022/01/19 11:38:47;;;;;;;18.30;13.07;;;;;;;;;;4948062;28;20207;-77
2022/01/19 11:41:13;;;;;;;17.33;12.73;;;;;;;;;;4973674;28;20260;-76
2022/01/19 11:43:49;;;;;;;18.27;12.87;;;;;;;;;;4949879;28;20201;-75
2022/01/19 11:46:26;;;;;;;21.70;14.17;;;;;;;;;;4949499;28;20173;-74
2022/01/19 11:48:52;;;;;;;20.67;14.27;;;;;;;;;;4947316;29;21043;-76
2022/01/19 11:51:25;;;;;;;16.93;12.60;;;;;;;;;;4946213;28;20233;-77
2022/01/19 11:54:07;;;;;;;22.00;14.50;;;;;;;;;;4950634;28;20205;-77
2022/01/19 11:56:34;;;;;;;19.13;13.43;;;;;;;;;;4951970;28;20685;-76
2022/01/19 11:59:08;;;;;;;18.03;13.77;;;;;;;;;;4952127;28;20178;-77
2022/01/19 12:01:34;;;;;;;17.17;12.83;;;;;;;;;;4950602;28;20189;-78
2022/01/19 12:04:14;;;;;;;17.93;13.50;;;;;;;;;;4949266;28;20213;-77
2022/01/19 12:06:42;;;;;;;20.20;14.10;;;;;;;;;;4938025;28;20193;-73
2022/01/19 12:09:11;;;;;;;19.53;14.47;;;;;;;;;;4960601;28;20190;-74
2022/01/19 12:11:42;;;;;;;20.47;13.90;;;;;;;;;;4947959;28;20777;-74
2022/01/19 12:14:21;;;;;;;21.20;14.90;;;;;;;;;;4953430;28;20217;-73
2022/01/19 12:16:57;;;;;;;21.33;14.73;;;;;;;;;;4948941;28;20174;-72
2022/01/19 12:19:27;;;;;;;22.00;15.00;;;;;;;;;;4956388;28;20184;-73
2022/01/19 12:22:00;;;;;;;21.03;13.43;;;;;;;;;;4951823;28;20233;-73
2022/01/19 12:24:37;;;;;;;19.57;14.60;;;;;;;;;;4950688;28;20610;-73
2022/01/19 12:27:05;;;;;;;20.53;14.27;;;;;;;;;;4946048;28;20177;-73
2022/01/19 12:29:36;;;;;;;18.40;13.87;;;;;;;;;;4952771;28;20191;-76
2022/01/19 12:32:03;;;;;;;17.23;13.13;;;;;;;;;;4948858;28;20193;-74
2022/01/19 12:34:46;;;;;;;19.33;13.87;;;;;;;;;;4952322;28;20216;-74
2022/01/19 12:37:14;;;;;;;17.17;12.27;;;;;;;;;;4954277;28;20177;-74
2022/01/19 12:39:42;;;;;;;18.93;12.83;;;;;;;;;;4943896;28;20213;-78
2022/01/19 12:42:19;;;;;;;19.23;12.90;;;;;;;;;;4964189;28;20212;-77
2022/01/19 12:44:45;;;;;;;18.07;12.43;;;;;;;;;;4949840;28;20757;-78
2022/01/19 12:47:27;;;;;;;20.83;13.30;;;;;;;;;;4951511;28;20232;-78
2022/01/19 12:49:53;;;;;;;17.83;13.07;;;;;;;;;;4952080;28;20190;-76
2022/01/19 12:52:20;;;;;;;17.57;12.07;;;;;;;;;;4953180;28;20196;-77
2022/01/19 12:54:46;;;;;;;18.23;12.87;;;;;;;;;;4969913;28;20626;-78
2022/01/19 12:57:15;;;;;;;18.87;12.97;;;;;;;;;;4953675;28;20498;-78
2022/01/19 12:59:46;;;;;;;17.67;11.73;;;;;;;;;;4967923;28;20806;-78
2022/01/19 13:02:13;;;;;;;16.60;11.83;;;;;;;;;;4954629;29;20398;-77
2022/01/19 13:04:41;;;;;;;14.17;10.47;;;;;;;;;;4952840;28;20492;-78
2022/01/19 13:07:19;;;;;;;16.87;11.60;;;;;;;;;;4953908;28;20177;-77
2022/01/19 13:10:03;;;;;;;16.77;11.47;;;;;;;;;;4953544;28;20646;-77
2022/01/19 13:12:34;;;;;;;17.30;11.07;;;;;;;;;;4948729;28;20600;-76
2022/01/19 13:15:00;;;;;;;16.00;11.33;;;;;;;;;;4951688;29;20224;-78
2022/01/19 13:17:39;;;;;;;16.90;11.17;;;;;;;;;;4951246;28;20213;-77
2022/01/19 13:20:13;;;;;;;15.57;10.87;;;;;;;;;;4946558;28;20541;-77
2022/01/19 13:22:50;;;;;;;18.57;11.67;;;;;;;;;;4949765;28;20721;-78
2022/01/19 13:25:17;;;;;;;17.00;11.33;;;;;;;;;;4965724;28;20348;-78
2022/01/19 13:27:46;;;;;;;17.47;11.60;;;;;;;;;;4944104;28;20669;-78
2022/01/19 13:30:13;;;;;;;17.23;11.50;;;;;;;;;;4948568;29;20204;-78
2022/01/19 13:32:40;;;;;;;18.53;11.13;;;;;;;;;;4947291;28;20288;-78
2022/01/19 13:35:08;;;;;;;15.60;10.20;;;;;;;;;;4944252;28;20717;-78
2022/01/19 13:37:38;;;;;;;16.67;11.13;;;;;;;;;;4939355;28;20602;-78
2022/01/19 13:40:07;;;;;;;19.23;12.00;;;;;;;;;;4948146;28;20645;-78
2022/01/19 13:42:41;;;;;;;18.90;12.60;;;;;;;;;;4947238;28;20623;-78
2022/01/19 13:50:42;;;;;;;19.47;12.13;;;;;;;;;;4947268;28;20181;-78
2022/01/19 13:53:08;;;;;;;18.03;12.00;;;;;;;;;;4946081;28;20657;-79
2022/01/19 13:55:35;;;;;;;19.07;12.77;;;;;;;;;;4947105;28;20228;-78
2022/01/19 13:58:10;;;;;;;17.10;11.73;;;;;;;;;;4946780;28;20264;-79
2022/01/19 14:00:37;;;;;;;17.43;12.17;;;;;;;;;;4947210;28;20188;-84
2022/01/19 14:03:04;;;;;;;17.13;11.73;;;;;;;;;;4948915;28;20308;-83
2022/01/19 14:05:54;;;;;;;18.80;11.63;;;;;;;;;;4931302;29;20211;-80
2022/01/19 14:08:32;;;;;;;17.20;11.80;;;;;;;;;;4951798;28;20198;-75
2022/01/19 14:10:58;;;;;;;20.27;12.30;;;;;;;;;;4947513;29;20284;-76
2022/01/19 14:13:34;;;;;;;17.47;11.77;;;;;;;;;;4947050;29;20660;-75
2022/01/19 14:16:19;;;;;;;19.43;12.00;;;;;;;;;;4948182;28;20189;-79
2022/01/19 14:19:05;;;;;;;19.33;13.17;;;;;;;;;;4947848;28;20200;-80
2022/01/19 14:21:31;;;;;;;18.30;11.97;;;;;;;;;;4945998;28;21514;-76
2022/01/19 14:24:01;;;;;;;19.97;12.77;;;;;;;;;;4944780;28;20209;-76
2022/01/19 14:26:27;;;;;;;22.00;13.23;;;;;;;;;;4943369;28;20181;-76
2022/01/19 14:29:15;;;;;;;18.20;12.70;;;;;;;;;;4945010;29;20193;-76
2022/01/19 14:31:48;;;;;;;20.73;13.43;;;;;;;;;;4943836;28;20614;-76
2022/01/19 14:34:15;;;;;;;20.50;12.70;;;;;;;;;;4949202;28;20688;-76
2022/01/19 14:36:41;;;;;;;21.07;12.70;;;;;;;;;;4950885;28;20244;-77
2022/01/19 14:39:09;;;;;;;21.57;12.67;;;;;;;;;;4947560;28;20200;-76
2022/01/19 14:41:37;;;;;;;20.37;12.90;;;;;;;;;;4950624;28;20178;-76
2022/01/19 14:44:20;;;;;;;20.37;13.10;;;;;;;;;;4949120;28;20253;-76
2022/01/19 14:47:04;;;;;;;18.67;12.03;;;;;;;;;;4950249;29;20213;-75
2022/01/19 14:49:32;;;;;;;21.47;13.70;;;;;;;;;;4944905;28;20588;-76
2022/01/19 14:51:59;;;;;;;19.00;13.00;;;;;;;;;;4943468;28;20185;-76
2022/01/19 14:54:25;;;;;;;18.63;12.10;;;;;;;;;;4949365;28;20613;-76
2022/01/19 14:56:52;;;;;;;19.23;11.90;;;;;;;;;;4948627;29;20194;-76
2022/01/19 14:59:20;;;;;;;19.30;12.00;;;;;;;;;;4950048;28;20593;-77
2022/01/19 15:01:48;;;;;;;19.97;12.90;;;;;;;;;;4949018;28;20338;-76
2022/01/19 15:04:14;;;;;;;17.93;12.10;;;;;;;;;;4944435;28;20609;-76
2022/01/19 15:06:40;;;;;;;18.47;12.43;;;;;;;;;;4946508;28;20181;-76
2022/01/19 15:09:08;;;;;;;20.70;12.40;;;;;;;;;;4943496;28;20188;-76
2022/01/19 15:11:35;;;;;;;18.00;12.07;;;;;;;;;;4942914;28;20210;-76
2022/01/19 15:14:01;;;;;;;21.20;11.77;;;;;;;;;;4949672;28;20216;-76
2022/01/19 15:16:27;;;;;;;21.87;12.60;;;;;;;;;;4951194;28;20193;-76
2022/01/19 15:18:53;;;;;;;20.17;12.67;;;;;;;;;;4936874;28;20268;-76
2022/01/19 15:21:19;;;;;;;18.27;12.10;;;;;;;;;;4950659;28;20292;-76
2022/01/19 15:23:46;;;;;;;20.43;12.77;;;;;;;;;;4950428;28;20212;-77
2022/01/19 15:26:12;;;;;;;17.77;12.20;;;;;;;;;;4951542;28;20587;-75
2022/01/19 15:28:38;;;;;;;21.70;13.17;;;;;;;;;;4948189;29;20192;-76
2022/01/19 15:31:06;;;;;;;23.57;13.77;;;;;;;;;;4946063;28;20180;-77
2022/01/19 15:33:32;;;;;;;20.27;13.13;;;;;;;;;;4948484;28;20612;-75
2022/01/19 15:36:01;;;;;;;18.80;12.70;;;;;;;;;;4947902;29;20251;-75
2022/01/19 15:38:27;;;;;;;20.97;12.93;;;;;;;;;;4948908;29;20665;-76
2022/01/19 15:40:53;;;;;;;21.63;14.33;;;;;;;;;;4942996;28;20208;-76
2022/01/19 15:43:20;;;;;;;21.47;13.33;;;;;;;;;;4943422;28;20220;-76